RYR7YZ EGBB-EPMO
Flight info
| Callsign | RYR7YZ |
|---|---|
| Flight time | N/A |
| Altitude | 37000 |
| Route | UNGAP P155 SIVDA P137 REDFA L620 PAM DCT HLZ DCT SUBIX DCT OBOKU P150 DOSIX |
| Aircraft | B738/M-SDE3FGILRWY/SB1 |
Departure
| Time | N/A |
|---|---|
| Airport | Birmingham Airport (EGBB) |
Arrival
| Time | 2026-04-28 18:26 |
|---|---|
| Airport | Warsaw Modlin Airport (EPMO) |
| Time | Latitude | Longitude | Altitude | Speed | Heading |
|---|---|---|---|---|---|
| 2026-04-28 17:18 | 52.38478 | 8.68263 | 37290 ft | 441 kts | 87° |
| 2026-04-28 17:19 | 52.38462 | 8.78309 | 37287 ft | 441 kts | 87° |
| 2026-04-28 17:19 | 52.38436 | 8.88352 | 37291 ft | 441 kts | 87° |
| 2026-04-28 17:20 | 52.38409 | 8.96707 | 37307 ft | 442 kts | 87° |
| 2026-04-28 17:20 | 52.38362 | 9.08286 | 37295 ft | 443 kts | 88° |
| 2026-04-28 17:21 | 52.38312 | 9.18307 | 37293 ft | 443 kts | 88° |
| 2026-04-28 17:22 | 52.38219 | 9.33465 | 37294 ft | 444 kts | 88° |
| 2026-04-28 17:22 | 52.38147 | 9.43583 | 37294 ft | 445 kts | 88° |
| 2026-04-28 17:23 | 52.38022 | 9.58777 | 37302 ft | 445 kts | 88° |
| 2026-04-28 17:23 | 52.37928 | 9.68918 | 37290 ft | 445 kts | 88° |
| 2026-04-28 17:24 | 52.37825 | 9.79029 | 37290 ft | 444 kts | 88° |
| 2026-04-28 17:24 | 52.37714 | 9.89101 | 37294 ft | 442 kts | 88° |
| 2026-04-28 17:25 | 52.37535 | 10.03977 | 37303 ft | 441 kts | 88° |
| 2026-04-28 17:26 | 52.37404 | 10.14047 | 37303 ft | 442 kts | 88° |
| 2026-04-28 17:26 | 52.37264 | 10.24100 | 37298 ft | 443 kts | 88° |
| 2026-04-28 17:27 | 52.37115 | 10.34187 | 37295 ft | 444 kts | 88° |
| 2026-04-28 17:27 | 52.36956 | 10.44306 | 37294 ft | 445 kts | 89° |
| 2026-04-28 17:28 | 52.36791 | 10.54381 | 37296 ft | 447 kts | 89° |
| 2026-04-28 17:28 | 52.36523 | 10.69657 | 37296 ft | 449 kts | 89° |
| 2026-04-28 17:29 | 52.36340 | 10.79881 | 37293 ft | 450 kts | 88° |
| 2026-04-28 17:30 | 52.36566 | 10.95216 | 37301 ft | 450 kts | 85° |
| 2026-04-28 17:30 | 52.36913 | 11.10428 | 37307 ft | 452 kts | 85° |
| 2026-04-28 17:31 | 52.37191 | 11.25845 | 37302 ft | 452 kts | 85° |
| 2026-04-28 17:32 | 52.37431 | 11.41268 | 37302 ft | 452 kts | 85° |
| 2026-04-28 17:32 | 52.37581 | 11.51541 | 37318 ft | 452 kts | 85° |
| 2026-04-28 17:33 | 52.37723 | 11.61821 | 37308 ft | 452 kts | 85° |
| 2026-04-28 17:33 | 52.37812 | 11.68695 | 37307 ft | 452 kts | 85° |
| 2026-04-28 17:34 | 52.37959 | 11.80644 | 37311 ft | 452 kts | 86° |
| 2026-04-28 17:34 | 52.38075 | 11.90923 | 37314 ft | 452 kts | 86° |
| 2026-04-28 17:35 | 52.38181 | 12.01026 | 37331 ft | 452 kts | 86° |
| 2026-04-28 17:35 | 52.38281 | 12.11331 | 37321 ft | 453 kts | 86° |
| 2026-04-28 17:36 | 52.38409 | 12.21647 | 37322 ft | 453 kts | 84° |
| 2026-04-28 17:36 | 52.38665 | 12.31955 | 37313 ft | 453 kts | 84° |
| 2026-04-28 17:37 | 52.38933 | 12.42272 | 37309 ft | 453 kts | 84° |
| 2026-04-28 17:37 | 52.39175 | 12.52577 | 37328 ft | 454 kts | 84° |
| 2026-04-28 17:38 | 52.39398 | 12.62853 | 37315 ft | 454 kts | 84° |
| 2026-04-28 17:38 | 52.39609 | 12.73190 | 37313 ft | 454 kts | 85° |
| 2026-04-28 17:39 | 52.39810 | 12.83525 | 37300 ft | 454 kts | 85° |
| 2026-04-28 17:40 | 52.40097 | 12.99042 | 37303 ft | 455 kts | 85° |
| 2026-04-28 17:40 | 52.40275 | 13.09226 | 37312 ft | 455 kts | 85° |
| 2026-04-28 17:41 | 52.40446 | 13.19600 | 37302 ft | 456 kts | 85° |
| 2026-04-28 17:41 | 52.40609 | 13.29974 | 37297 ft | 456 kts | 85° |
| 2026-04-28 17:42 | 52.40762 | 13.40366 | 37291 ft | 457 kts | 85° |
| 2026-04-28 17:42 | 52.40907 | 13.50771 | 37292 ft | 457 kts | 85° |
| 2026-04-28 17:43 | 52.41043 | 13.61184 | 37299 ft | 458 kts | 85° |
| 2026-04-28 17:43 | 52.41170 | 13.71626 | 37298 ft | 458 kts | 85° |
| 2026-04-28 17:44 | 52.41288 | 13.82080 | 37299 ft | 459 kts | 85° |
| 2026-04-28 17:44 | 52.41395 | 13.92470 | 37302 ft | 459 kts | 85° |
| 2026-04-28 17:45 | 52.41494 | 14.02784 | 37302 ft | 459 kts | 85° |
| 2026-04-28 17:45 | 52.41585 | 14.13329 | 37315 ft | 460 kts | 85° |
| 2026-04-28 17:46 | 52.41665 | 14.23749 | 37304 ft | 460 kts | 85° |
| 2026-04-28 17:46 | 52.41737 | 14.34224 | 37311 ft | 460 kts | 85° |
| 2026-04-28 17:47 | 52.41800 | 14.44696 | 37298 ft | 459 kts | 86° |
| 2026-04-28 17:47 | 52.41853 | 14.55145 | 37300 ft | 459 kts | 86° |
| 2026-04-28 17:48 | 52.41897 | 14.65590 | 37312 ft | 458 kts | 86° |
| 2026-04-28 17:48 | 52.41932 | 14.76023 | 37301 ft | 458 kts | 86° |
| 2026-04-28 17:49 | 52.41958 | 14.86465 | 37312 ft | 458 kts | 86° |
| 2026-04-28 17:49 | 52.41974 | 14.96888 | 37302 ft | 458 kts | 86° |
| 2026-04-28 17:50 | 52.41982 | 15.07116 | 37333 ft | 458 kts | 86° |
| 2026-04-28 17:50 | 52.41980 | 15.17559 | 37313 ft | 458 kts | 86° |
| 2026-04-28 17:51 | 52.41969 | 15.28009 | 37307 ft | 459 kts | 86° |
| 2026-04-28 17:51 | 52.41949 | 15.38469 | 37306 ft | 459 kts | 86° |
| 2026-04-28 17:52 | 52.41920 | 15.48928 | 37307 ft | 460 kts | 86° |
| 2026-04-28 17:52 | 52.41859 | 15.64590 | 37313 ft | 461 kts | 86° |
| 2026-04-28 17:53 | 52.41806 | 15.75103 | 37301 ft | 462 kts | 86° |
| 2026-04-28 17:53 | 52.41744 | 15.85622 | 37304 ft | 462 kts | 86° |
| 2026-04-28 17:54 | 52.41672 | 15.96157 | 37308 ft | 463 kts | 87° |
| 2026-04-28 17:54 | 52.41593 | 16.06512 | 37311 ft | 463 kts | 87° |
| 2026-04-28 17:55 | 52.41503 | 16.17077 | 36997 ft | 465 kts | 87° |
| 2026-04-28 17:55 | 52.41453 | 16.22330 | 36682 ft | 457 kts | 87° |
| 2026-04-28 17:55 | 52.41401 | 16.27505 | 36302 ft | 452 kts | 87° |
| 2026-04-28 17:56 | 52.41348 | 16.32633 | 35932 ft | 448 kts | 87° |
| 2026-04-28 17:56 | 52.41294 | 16.37709 | 35554 ft | 444 kts | 87° |
| 2026-04-28 17:56 | 52.41238 | 16.42742 | 35178 ft | 440 kts | 87° |
| 2026-04-28 17:56 | 52.41182 | 16.47742 | 34806 ft | 437 kts | 87° |
| 2026-04-28 17:57 | 52.41136 | 16.51657 | 34515 ft | 434 kts | 87° |
| 2026-04-28 17:57 | 52.41076 | 16.56588 | 34115 ft | 431 kts | 87° |
| 2026-04-28 17:57 | 52.41015 | 16.61485 | 33723 ft | 428 kts | 87° |
| 2026-04-28 17:57 | 52.40952 | 16.66341 | 33319 ft | 425 kts | 87° |
| 2026-04-28 17:58 | 52.40888 | 16.71163 | 32941 ft | 422 kts | 87° |
| 2026-04-28 17:58 | 52.40822 | 16.75952 | 32587 ft | 418 kts | 87° |
| 2026-04-28 17:58 | 52.40755 | 16.80685 | 32235 ft | 414 kts | 87° |
| 2026-04-28 17:58 | 52.40686 | 16.85386 | 31888 ft | 411 kts | 87° |
| 2026-04-28 17:59 | 52.40616 | 16.90043 | 31556 ft | 408 kts | 87° |
| 2026-04-28 17:59 | 52.40546 | 16.94608 | 31237 ft | 405 kts | 87° |
| 2026-04-28 17:59 | 52.40473 | 16.99260 | 30887 ft | 402 kts | 87° |
| 2026-04-28 17:59 | 52.40404 | 17.03599 | 30573 ft | 399 kts | 87° |
| 2026-04-28 18:00 | 52.40328 | 17.08188 | 30216 ft | 396 kts | 87° |
| 2026-04-28 18:00 | 52.40253 | 17.12624 | 29877 ft | 393 kts | 87° |
| 2026-04-28 18:00 | 52.40176 | 17.17080 | 29505 ft | 390 kts | 87° |
| 2026-04-28 18:00 | 52.40098 | 17.21488 | 29170 ft | 385 kts | 87° |
| 2026-04-28 18:01 | 52.40019 | 17.25858 | 28816 ft | 382 kts | 87° |
| 2026-04-28 18:01 | 52.39939 | 17.30186 | 28487 ft | 378 kts | 87° |
| 2026-04-28 18:01 | 52.39859 | 17.34470 | 28149 ft | 375 kts | 87° |
| 2026-04-28 18:01 | 52.39778 | 17.38722 | 27815 ft | 372 kts | 87° |
| 2026-04-28 18:02 | 52.39696 | 17.42940 | 27491 ft | 369 kts | 87° |
| 2026-04-28 18:02 | 52.39649 | 17.47128 | 27154 ft | 367 kts | 84° |
| 2026-04-28 18:02 | 52.39701 | 17.51246 | 26839 ft | 365 kts | 83° |
| 2026-04-28 18:02 | 52.39762 | 17.55385 | 26512 ft | 364 kts | 83° |
| 2026-04-28 18:03 | 52.39825 | 17.59529 | 26176 ft | 363 kts | 83° |
| 2026-04-28 18:03 | 52.39886 | 17.63642 | 25851 ft | 360 kts | 83° |
| 2026-04-28 18:03 | 52.39945 | 17.67730 | 25529 ft | 358 kts | 83° |
| 2026-04-28 18:03 | 52.40001 | 17.71801 | 25210 ft | 356 kts | 83° |
| 2026-04-28 18:04 | 52.40054 | 17.75850 | 24901 ft | 354 kts | 83° |
| 2026-04-28 18:04 | 52.40103 | 17.79873 | 24580 ft | 353 kts | 83° |
| 2026-04-28 18:04 | 52.40146 | 17.83881 | 24260 ft | 351 kts | 83° |
| 2026-04-28 18:04 | 52.40186 | 17.87875 | 23943 ft | 350 kts | 83° |
| 2026-04-28 18:05 | 52.40224 | 17.91843 | 23582 ft | 348 kts | 83° |
| 2026-04-28 18:05 | 52.40248 | 17.94459 | 23346 ft | 346 kts | 83° |
| 2026-04-28 18:05 | 52.40294 | 17.99649 | 22936 ft | 342 kts | 83° |
| 2026-04-28 18:05 | 52.40327 | 18.03391 | 22633 ft | 339 kts | 82° |
| 2026-04-28 18:06 | 52.40444 | 18.07268 | 22314 ft | 335 kts | 80° |
| 2026-04-28 18:06 | 52.40598 | 18.11056 | 22022 ft | 332 kts | 80° |
| 2026-04-28 18:06 | 52.40740 | 18.14782 | 21719 ft | 333 kts | 81° |
| 2026-04-28 18:06 | 52.40864 | 18.18619 | 21440 ft | 334 kts | 81° |
| 2026-04-28 18:07 | 52.40969 | 18.22470 | 21125 ft | 343 kts | 81° |
| 2026-04-28 18:07 | 52.41061 | 18.26420 | 20786 ft | 350 kts | 82° |
| 2026-04-28 18:07 | 52.41140 | 18.30423 | 20398 ft | 353 kts | 82° |
| 2026-04-28 18:07 | 52.41209 | 18.34449 | 20025 ft | 354 kts | 82° |
| 2026-04-28 18:08 | 52.41271 | 18.38472 | 19649 ft | 352 kts | 82° |
| 2026-04-28 18:08 | 52.41328 | 18.42470 | 19276 ft | 351 kts | 83° |
| 2026-04-28 18:08 | 52.41382 | 18.46400 | 18915 ft | 349 kts | 83° |
| 2026-04-28 18:08 | 52.41436 | 18.50363 | 18554 ft | 347 kts | 83° |
| 2026-04-28 18:09 | 52.41487 | 18.54306 | 18132 ft | 345 kts | 83° |
| 2026-04-28 18:09 | 52.41538 | 18.58230 | 17728 ft | 344 kts | 83° |
| 2026-04-28 18:09 | 52.41587 | 18.62183 | 17316 ft | 342 kts | 83° |
| 2026-04-28 18:09 | 52.41634 | 18.66017 | 16922 ft | 340 kts | 83° |
| 2026-04-28 18:10 | 52.41680 | 18.69881 | 16547 ft | 339 kts | 83° |
| 2026-04-28 18:10 | 52.41724 | 18.73731 | 16152 ft | 337 kts | 83° |
| 2026-04-28 18:10 | 52.41768 | 18.77563 | 15774 ft | 336 kts | 83° |
| 2026-04-28 18:10 | 52.41810 | 18.81382 | 15402 ft | 334 kts | 83° |
| 2026-04-28 18:11 | 52.41850 | 18.85182 | 15018 ft | 333 kts | 83° |
| 2026-04-28 18:11 | 52.41889 | 18.88965 | 14650 ft | 332 kts | 83° |
| 2026-04-28 18:11 | 52.41927 | 18.92732 | 14286 ft | 330 kts | 83° |
| 2026-04-28 18:11 | 52.41963 | 18.96486 | 13901 ft | 329 kts | 83° |
| 2026-04-28 18:12 | 52.41997 | 19.00146 | 13501 ft | 328 kts | 83° |
| 2026-04-28 18:12 | 52.42031 | 19.03814 | 13103 ft | 326 kts | 83° |
| 2026-04-28 18:12 | 52.42063 | 19.07517 | 12706 ft | 324 kts | 83° |
| 2026-04-28 18:12 | 52.42094 | 19.11199 | 12314 ft | 322 kts | 83° |
| 2026-04-28 18:13 | 52.42124 | 19.14854 | 11927 ft | 320 kts | 84° |
| 2026-04-28 18:13 | 52.42152 | 19.18497 | 11542 ft | 318 kts | 84° |
| 2026-04-28 18:13 | 52.42178 | 19.22095 | 11308 ft | 312 kts | 84° |
| 2026-04-28 18:13 | 52.42202 | 19.25628 | 11010 ft | 308 kts | 84° |
| 2026-04-28 18:14 | 52.42226 | 19.29124 | 10709 ft | 305 kts | 84° |
| 2026-04-28 18:14 | 52.42250 | 19.32580 | 10412 ft | 301 kts | 84° |
| 2026-04-28 18:14 | 52.42270 | 19.35957 | 10310 ft | 291 kts | 84° |
| 2026-04-28 18:14 | 52.42288 | 19.39214 | 10290 ft | 283 kts | 84° |
| 2026-04-28 18:15 | 52.42306 | 19.42422 | 10290 ft | 282 kts | 84° |
| 2026-04-28 18:15 | 52.42326 | 19.45647 | 10300 ft | 284 kts | 84° |
| 2026-04-28 18:15 | 52.42346 | 19.48899 | 10303 ft | 286 kts | 84° |
| 2026-04-28 18:15 | 52.42363 | 19.52147 | 10291 ft | 285 kts | 84° |
| 2026-04-28 18:16 | 52.42378 | 19.55377 | 10291 ft | 284 kts | 84° |
| 2026-04-28 18:16 | 52.42392 | 19.58610 | 10292 ft | 283 kts | 84° |
| 2026-04-28 18:16 | 52.42406 | 19.61790 | 10295 ft | 283 kts | 84° |
| 2026-04-28 18:16 | 52.42418 | 19.65007 | 10293 ft | 283 kts | 84° |
| 2026-04-28 18:17 | 52.42430 | 19.68223 | 10234 ft | 282 kts | 84° |
| 2026-04-28 18:17 | 52.42440 | 19.71416 | 10017 ft | 280 kts | 84° |
| 2026-04-28 18:17 | 52.42450 | 19.74607 | 9680 ft | 281 kts | 85° |
| 2026-04-28 18:17 | 52.42459 | 19.77798 | 9402 ft | 279 kts | 85° |
| 2026-04-28 18:18 | 52.42467 | 19.80966 | 9156 ft | 277 kts | 85° |
| 2026-04-28 18:18 | 52.42474 | 19.84113 | 8894 ft | 276 kts | 85° |
| 2026-04-28 18:18 | 52.42480 | 19.87250 | 8608 ft | 275 kts | 86° |
| 2026-04-28 18:18 | 52.42484 | 19.89364 | 8439 ft | 273 kts | 85° |
| 2026-04-28 18:19 | 52.42490 | 19.93469 | 8118 ft | 271 kts | 86° |
| 2026-04-28 18:19 | 52.42494 | 19.96539 | 7864 ft | 269 kts | 86° |
| 2026-04-28 18:19 | 52.42497 | 19.99608 | 7609 ft | 269 kts | 86° |
| 2026-04-28 18:19 | 52.42499 | 20.02538 | 7381 ft | 267 kts | 86° |
| 2026-04-28 18:20 | 52.42500 | 20.04571 | 7190 ft | 263 kts | 86° |
| 2026-04-28 18:20 | 52.42501 | 20.07579 | 6666 ft | 264 kts | 86° |
| 2026-04-28 18:20 | 52.42501 | 20.10582 | 6189 ft | 263 kts | 87° |
| 2026-04-28 18:20 | 52.42500 | 20.13566 | 5717 ft | 261 kts | 87° |
| 2026-04-28 18:21 | 52.42498 | 20.16534 | 5242 ft | 260 kts | 86° |
| 2026-04-28 18:21 | 52.42496 | 20.19481 | 4770 ft | 258 kts | 86° |
| 2026-04-28 18:21 | 52.42494 | 20.22412 | 4294 ft | 257 kts | 86° |
| 2026-04-28 18:21 | 52.42491 | 20.25331 | 3825 ft | 256 kts | 87° |
| 2026-04-28 18:22 | 52.42487 | 20.28239 | 3356 ft | 255 kts | 86° |
| 2026-04-28 18:22 | 52.42482 | 20.31124 | 3036 ft | 249 kts | 86° |
| 2026-04-28 18:22 | 52.42474 | 20.33860 | 2989 ft | 232 kts | 86° |
| 2026-04-28 18:22 | 52.42488 | 20.36419 | 2974 ft | 218 kts | 82° |
| 2026-04-28 18:23 | 52.42659 | 20.38784 | 3006 ft | 209 kts | 77° |
| 2026-04-28 18:23 | 52.42875 | 20.41116 | 2994 ft | 207 kts | 76° |
| 2026-04-28 18:23 | 52.43099 | 20.43490 | 2746 ft | 212 kts | 77° |
| 2026-04-28 18:23 | 52.43319 | 20.45870 | 2466 ft | 210 kts | 77° |
| 2026-04-28 18:24 | 52.43532 | 20.48193 | 2177 ft | 200 kts | 76° |
| 2026-04-28 18:24 | 52.43667 | 20.49672 | 2016 ft | 188 kts | 76° |
| 2026-04-28 18:24 | 52.43919 | 20.52379 | 1700 ft | 176 kts | 76° |
| 2026-04-28 18:24 | 52.44097 | 20.54294 | 1481 ft | 164 kts | 76° |
| 2026-04-28 18:25 | 52.44261 | 20.56054 | 1300 ft | 153 kts | 75° |
| 2026-04-28 18:25 | 52.44420 | 20.57741 | 1063 ft | 146 kts | 75° |
| 2026-04-28 18:25 | 52.44573 | 20.59373 | 890 ft | 146 kts | 75° |
| 2026-04-28 18:26 | 52.44891 | 20.62736 | 477 ft | 151 kts | 77° |
| 2026-04-28 18:26 | 52.45044 | 20.64368 | 351 ft | 134 kts | 82° |
| 2026-04-28 18:26 | 52.45158 | 20.65563 | 353 ft | 75 kts | 81° |
| 2026-04-28 18:26 | 52.45187 | 20.65883 | 349 ft | 8 kts | 83° |
| 2026-04-28 18:27 | 52.45165 | 20.65983 | 353 ft | 13 kts | 143° |
| 2026-04-28 18:27 | 52.45068 | 20.66048 | 352 ft | 12 kts | 161° |
| 2026-04-28 18:27 | 52.45003 | 20.66083 | 354 ft | 8 kts | 161° |
| 2026-04-28 18:27 | 52.44949 | 20.66114 | 351 ft | 8 kts | 161° |
| 2026-04-28 18:28 | 52.44936 | 20.66121 | 352 ft | 0 kts | 161° |
| 2026-04-28 18:28 | 52.44934 | 20.66122 | 352 ft | 1 kts | 161° |
| 2026-04-28 18:28 | 52.44906 | 20.66133 | 349 ft | 8 kts | 179° |
| 2026-04-28 18:29 | 52.44863 | 20.66042 | 355 ft | 14 kts | 258° |
| 2026-04-28 18:29 | 52.44847 | 20.65872 | 349 ft | 16 kts | 261° |
| 2026-04-28 18:29 | 52.44831 | 20.65700 | 352 ft | 15 kts | 261° |
| 2026-04-28 18:29 | 52.44817 | 20.65535 | 350 ft | 14 kts | 261° |
| 2026-04-28 18:30 | 52.44802 | 20.65378 | 351 ft | 14 kts | 261° |
| 2026-04-28 18:30 | 52.44794 | 20.65294 | 349 ft | 8 kts | 261° |
| 2026-04-28 18:30 | 52.44762 | 20.65200 | 351 ft | 7 kts | 208° |
| 2026-04-28 18:30 | 52.44757 | 20.65196 | 350 ft | 0 kts | 207° |
| 2026-04-28 18:31 | 52.44754 | 20.65194 | 350 ft | 1 kts | 206° |
| 2026-04-28 18:31 | 52.44742 | 20.65184 | 354 ft | 3 kts | 204° |
| 2026-04-28 18:31 | 52.44739 | 20.65182 | 354 ft | 0 kts | 204° |